YPKG/KGI METAR and TAF weather

Enter ICAO airport designator
Station Type Date Time Source
YPKG METAR 2020/08/15 11:00 UTC NOAA

YPKG 151100Z AUTO 36004KT 9999 // NCD 17/M02 Q1011


Station Type Date Time Source
YPKG Decoded METAR 2020/08/15 11:00 UTC NOAA

Kalgoorlie Boulder Amo, Australia (YPKG) 30-47S 121-27E 370M
Aug 15, 2020 - 07:00 AM EDT / 2020.08.15 1100 UTC
Wind: from the N (360 degrees) at 5 MPH (4 KT):0
Visibility: greater than 7 mile(s):0
Temperature: 62 F (17 C)
Dew Point: 28 F (-2 C)
Relative Humidity: 27%
Pressure (altimeter): 29.85 in. Hg (1011 hPa)
ob: YPKG 151100Z AUTO 36004KT 9999 // NCD 17/M02 Q1011
cycle: 11

Station Type Date Time Source
YPKG TAF 2020/08/15 12:00 UTC NOAA

TAF YPKG 151057Z 1512/1612 01010KT CAVOK
FM152100 32012KT 9999 -RA NSC
FM160200 28018G28KT 9999 -SHRA SCT020 BKN045
FM160500 27020G30KT CAVOK
TEMPO 1523/1603 4000 RA BKN012

Example: see airport list